createdAt,value
2018-02-01T00:00:02.963Z,2.16
2018-02-01T00:01:06.208Z,2.11
2018-02-01T00:02:09.186Z,2.19
2018-02-01T00:03:12.177Z,2.29
2018-02-01T00:04:15.161Z,2.25
2018-02-01T00:05:18.112Z,2.28
2018-02-01T00:06:21.069Z,2.27
2018-02-01T00:07:24.538Z,2.26
2018-02-01T00:08:27.479Z,2.18
2018-02-01T00:09:30.401Z,2.22
2018-02-01T00:10:33.395Z,2.29
2018-02-01T00:11:36.353Z,2.26
2018-02-01T00:12:39.310Z,2.23
2018-02-01T00:13:42.785Z,2.24
2018-02-01T00:14:45.812Z,2.26
2018-02-01T00:15:48.756Z,2.18
2018-02-01T00:16:51.859Z,2.27
2018-02-01T00:17:54.789Z,2.18
2018-02-01T00:18:57.743Z,2.14
2018-02-01T00:20:01.059Z,2.22
2018-02-01T00:21:04.009Z,2.25
2018-02-01T00:22:06.986Z,2.27
2018-02-01T00:23:09.942Z,2.17
2018-02-01T00:24:12.928Z,2.14
2018-02-01T00:25:15.880Z,2.13
2018-02-01T00:26:19.154Z,2.09
2018-02-01T00:27:22.137Z,2.06
2018-02-01T00:28:25.105Z,2.07
2018-02-01T00:29:28.073Z,2.09
2018-02-01T00:30:31.018Z,2.10
2018-02-01T00:31:33.965Z,2.12
2018-02-01T00:32:37.265Z,2.13
2018-02-01T00:33:40.237Z,2.13
2018-02-01T00:34:43.197Z,2.13
2018-02-01T00:35:50.074Z,2.12
2018-02-01T00:36:53.202Z,2.09
2018-02-01T00:37:56.280Z,2.09
2018-02-01T00:38:59.618Z,2.09
2018-02-01T00:40:02.597Z,2.14
2018-02-01T00:41:05.548Z,2.02
2018-02-01T00:42:08.509Z,1.99
2018-02-01T00:43:11.608Z,2.00
2018-02-01T00:44:14.652Z,2.00
2018-02-01T00:45:18.061Z,1.98
2018-02-01T00:46:21.031Z,1.96
2018-02-01T00:47:24.017Z,1.91
2018-02-01T00:48:26.949Z,1.95
2018-02-01T00:49:29.892Z,1.91
2018-02-01T00:50:32.862Z,2.03
2018-02-01T00:51:36.349Z,1.96
2018-02-01T00:52:39.313Z,1.90
2018-02-01T00:53:42.286Z,1.99
2018-02-01T00:54:45.321Z,2.00
2018-02-01T00:55:48.314Z,1.94
2018-02-01T00:56:51.285Z,1.97
2018-02-01T00:57:54.556Z,2.01
2018-02-01T00:58:57.596Z,1.96
2018-02-01T01:00:00.556Z,1.96
2018-02-01T01:01:03.555Z,2.01
2018-02-01T01:02:06.517Z,2.05
2018-02-01T01:03:09.472Z,2.04
2018-02-01T01:04:12.864Z,2.07
2018-02-01T01:05:15.851Z,2.11
2018-02-01T01:06:18.842Z,2.11
2018-02-01T01:07:21.815Z,2.03
2018-02-01T01:08:24.748Z,2.08
2018-02-01T01:09:27.745Z,2.00
2018-02-01T01:10:31.136Z,2.03
2018-02-01T01:11:34.137Z,1.98
2018-02-01T01:12:37.110Z,1.94
2018-02-01T01:13:40.070Z,1.92
2018-02-01T01:14:43.030Z,1.93
2018-02-01T01:15:45.979Z,1.85
2018-02-01T01:16:49.369Z,1.88
2018-02-01T01:17:52.965Z,1.86
2018-02-01T01:18:55.918Z,1.89
2018-02-01T01:19:58.850Z,1.90
2018-02-01T01:21:01.799Z,1.91
2018-02-01T01:22:04.745Z,1.93
2018-02-01T01:23:08.045Z,1.82
2018-02-01T01:24:11.028Z,1.82
2018-02-01T01:25:14.031Z,1.84
2018-02-01T01:26:16.988Z,1.88
2018-02-01T01:27:19.965Z,1.95
2018-02-01T01:28:22.946Z,1.88
2018-02-01T01:29:26.292Z,1.93
2018-02-01T01:30:29.377Z,1.97
2018-02-01T01:31:32.349Z,1.94
2018-02-01T01:32:35.380Z,1.92
2018-02-01T01:33:38.305Z,1.89
2018-02-01T01:34:41.362Z,1.88
2018-02-01T01:35:44.802Z,1.83
2018-02-01T01:36:47.808Z,1.87
2018-02-01T01:37:50.746Z,1.95
2018-02-01T01:38:53.708Z,1.99
2018-02-01T01:39:56.659Z,2.02
2018-02-01T01:40:59.609Z,1.97
2018-02-01T01:42:03.065Z,1.95
2018-02-01T01:43:06.056Z,1.92
2018-02-01T01:44:09.033Z,1.92
2018-02-01T01:45:11.980Z,1.92
2018-02-01T01:46:14.922Z,1.91
2018-02-01T01:47:17.868Z,1.92
2018-02-01T01:48:21.312Z,1.96
2018-02-01T01:49:24.240Z,1.99
2018-02-01T01:50:27.214Z,1.98
2018-02-01T01:51:30.203Z,1.98
2018-02-01T01:52:33.175Z,1.92
2018-02-01T01:53:36.125Z,2.03
2018-02-01T01:54:39.544Z,1.97
2018-02-01T01:55:42.522Z,1.84
2018-02-01T01:56:45.496Z,1.89
2018-02-01T01:57:48.486Z,1.83
2018-02-01T01:58:51.449Z,1.89
2018-02-01T01:59:54.414Z,1.95
2018-02-01T02:00:57.816Z,1.92
2018-02-01T02:02:00.758Z,1.83
2018-02-01T02:03:03.684Z,1.79
2018-02-01T02:04:06.633Z,1.77
2018-02-01T02:05:09.588Z,1.58
2018-02-01T02:06:12.549Z,1.57
2018-02-01T02:07:15.890Z,1.54
2018-02-01T02:08:18.807Z,1.46
2018-02-01T02:09:21.806Z,1.30
2018-02-01T02:10:24.766Z,1.32
2018-02-01T02:11:27.689Z,1.18
2018-02-01T02:12:30.655Z,1.01
2018-02-01T02:13:33.927Z,0.83
2018-02-01T02:14:36.910Z,0.97
2018-02-01T02:15:39.917Z,1.14
2018-02-01T02:16:42.934Z,1.06
2018-02-01T02:17:45.880Z,0.88
2018-02-01T02:18:48.840Z,0.96
2018-02-01T02:19:52.186Z,0.95
2018-02-01T02:20:55.147Z,0.94
2018-02-01T02:21:58.100Z,0.91
2018-02-01T02:23:01.037Z,0.89
2018-02-01T02:24:03.986Z,0.89
2018-02-01T02:25:07.005Z,0.94
2018-02-01T02:26:10.472Z,0.98
2018-02-01T02:27:13.423Z,0.97
2018-02-01T02:28:16.376Z,0.93
2018-02-01T02:29:19.319Z,1.00
2018-02-01T02:30:22.273Z,0.96
2018-02-01T02:31:25.208Z,0.92
2018-02-01T02:32:28.603Z,0.93
2018-02-01T02:33:31.528Z,1.03
2018-02-01T02:34:34.466Z,1.06
2018-02-01T02:35:37.399Z,1.04
2018-02-01T02:36:40.397Z,1.06
2018-02-01T02:37:43.305Z,1.06
2018-02-01T02:38:46.549Z,1.14
2018-02-01T02:39:49.460Z,1.11
2018-02-01T02:40:52.376Z,1.11
2018-02-01T02:41:55.231Z,1.07
2018-02-01T02:42:58.508Z,1.12
2018-02-01T02:44:01.440Z,1.06
2018-02-01T02:45:04.758Z,1.04
2018-02-01T02:46:07.664Z,1.04
2018-02-01T02:47:10.534Z,1.12
2018-02-01T02:48:13.486Z,1.15
2018-02-01T02:49:16.429Z,1.25
2018-02-01T02:50:19.371Z,1.11
2018-02-01T02:51:22.704Z,1.05
2018-02-01T02:52:25.633Z,1.04
2018-02-01T02:53:28.623Z,1.04
2018-02-01T02:54:31.590Z,1.10
2018-02-01T02:55:34.561Z,1.14
2018-02-01T02:56:37.493Z,1.10
2018-02-01T02:57:41.385Z,1.08
2018-02-01T02:58:44.350Z,1.09
2018-02-01T02:59:47.270Z,1.12
2018-02-01T03:00:50.201Z,1.14
2018-02-01T03:01:53.123Z,1.11
2018-02-01T03:02:56.080Z,1.12
2018-02-01T03:03:59.434Z,1.17
2018-02-01T03:05:02.328Z,1.16
2018-02-01T03:06:05.249Z,1.20
2018-02-01T03:07:08.199Z,1.18
2018-02-01T03:08:11.156Z,1.22
2018-02-01T03:09:14.098Z,1.24
2018-02-01T03:10:17.443Z,1.28
2018-02-01T03:11:20.379Z,1.29
2018-02-01T03:12:23.349Z,1.30
2018-02-01T03:13:26.265Z,1.34
2018-02-01T03:14:29.256Z,1.48
2018-02-01T03:15:32.179Z,1.48
2018-02-01T03:16:35.532Z,1.53
2018-02-01T03:17:38.444Z,1.55
2018-02-01T03:18:41.398Z,1.56
2018-02-01T03:19:44.375Z,1.58
2018-02-01T03:20:47.336Z,1.56
2018-02-01T03:21:50.287Z,1.55
2018-02-01T03:22:53.569Z,1.59
2018-02-01T03:23:56.525Z,1.51
2018-02-01T03:24:59.476Z,1.59
2018-02-01T03:26:02.399Z,1.68
2018-02-01T03:27:05.346Z,1.66
2018-02-01T03:28:08.304Z,1.63
2018-02-01T03:29:11.776Z,1.55
2018-02-01T03:30:14.719Z,1.55
2018-02-01T03:31:17.645Z,1.57
2018-02-01T03:32:20.552Z,1.59
2018-02-01T03:33:23.482Z,1.65
2018-02-01T03:34:26.395Z,1.74
2018-02-01T03:35:29.720Z,1.69
2018-02-01T03:36:32.640Z,1.58
2018-02-01T03:37:35.585Z,1.57
2018-02-01T03:38:38.522Z,1.61
2018-02-01T03:39:41.536Z,1.55
2018-02-01T03:40:44.502Z,1.55
2018-02-01T03:41:47.761Z,1.62
2018-02-01T03:42:50.688Z,1.58
2018-02-01T03:43:53.636Z,1.70
2018-02-01T03:44:56.565Z,1.67
2018-02-01T03:45:59.524Z,1.59
2018-02-01T03:47:02.468Z,1.62
2018-02-01T03:48:06.708Z,1.57
2018-02-01T03:49:09.664Z,1.63
2018-02-01T03:50:12.600Z,1.55
2018-02-01T03:51:15.509Z,1.59
2018-02-01T03:52:18.443Z,1.53
2018-02-01T03:53:21.382Z,1.55
2018-02-01T03:54:24.643Z,1.68
2018-02-01T03:55:27.542Z,1.66
2018-02-01T03:56:30.494Z,1.67
2018-02-01T03:57:33.489Z,1.64
2018-02-01T03:58:36.445Z,1.57
2018-02-01T03:59:39.369Z,1.57
2018-02-01T04:00:42.340Z,1.59
2018-02-01T04:01:45.311Z,1.56
2018-02-01T04:02:48.261Z,1.60
2018-02-01T04:03:51.196Z,1.55
2018-02-01T04:04:54.101Z,1.53
2018-02-01T04:05:57.668Z,1.50
2018-02-01T04:07:00.627Z,1.48
2018-02-01T04:08:03.573Z,1.46
2018-02-01T04:09:06.516Z,1.51
2018-02-01T04:10:09.428Z,1.59
2018-02-01T04:11:12.374Z,1.62
2018-02-01T04:12:15.296Z,1.53
2018-02-01T04:13:18.247Z,1.48
2018-02-01T04:14:21.180Z,1.46
2018-02-01T04:15:24.246Z,1.46
2018-02-01T04:16:27.181Z,1.54
2018-02-01T04:17:30.524Z,1.62
2018-02-01T04:18:33.469Z,1.56
2018-02-01T04:19:36.404Z,1.52
2018-02-01T04:20:39.321Z,1.50
2018-02-01T04:21:42.396Z,1.47
2018-02-01T04:22:45.346Z,1.48
2018-02-01T04:23:48.630Z,1.49
2018-02-01T04:24:51.585Z,1.47
2018-02-01T04:25:54.500Z,1.48
2018-02-01T04:26:57.448Z,1.45
2018-02-01T04:28:00.436Z,1.41
2018-02-01T04:29:03.348Z,1.42
2018-02-01T04:30:06.683Z,1.39
2018-02-01T04:31:09.611Z,1.37
2018-02-01T04:32:12.559Z,1.31
2018-02-01T04:33:15.489Z,1.34
2018-02-01T04:34:18.420Z,1.36
2018-02-01T04:35:21.329Z,1.33
2018-02-01T04:36:24.716Z,1.28
2018-02-01T04:37:27.645Z,1.26
2018-02-01T04:38:30.580Z,1.27
2018-02-01T04:39:33.538Z,1.19
2018-02-01T04:40:36.455Z,1.14
2018-02-01T04:41:39.402Z,1.20
2018-02-01T04:42:42.775Z,1.17
2018-02-01T04:43:45.747Z,1.17
2018-02-01T04:44:48.711Z,1.16
2018-02-01T04:45:51.648Z,1.14
2018-02-01T04:46:54.595Z,1.12
2018-02-01T04:47:57.541Z,1.12
2018-02-01T04:49:00.491Z,1.13
2018-02-01T04:50:03.443Z,1.15
2018-02-01T04:51:06.379Z,1.12
2018-02-01T04:52:09.322Z,1.11
2018-02-01T04:53:12.262Z,1.09
2018-02-01T04:54:15.647Z,1.11
2018-02-01T04:55:18.584Z,1.10
2018-02-01T04:56:21.510Z,1.10
2018-02-01T04:57:24.369Z,1.08
2018-02-01T04:58:27.170Z,1.05
2018-02-01T04:59:30.010Z,1.04
2018-02-01T05:00:33.239Z,1.06
2018-02-01T05:01:36.069Z,1.08
2018-02-01T05:02:38.982Z,1.09
2018-02-01T05:03:41.874Z,1.05
2018-02-01T05:04:44.771Z,1.06
2018-02-01T05:05:47.663Z,1.08
2018-02-01T05:06:50.942Z,1.13
2018-02-01T05:07:53.836Z,1.12
2018-02-01T05:08:56.802Z,1.10
2018-02-01T05:09:59.739Z,1.13
2018-02-01T05:11:02.681Z,1.11
2018-02-01T05:12:05.619Z,1.12
2018-02-01T05:14:16.280Z,1.14
2018-02-01T05:15:19.239Z,1.15
2018-02-01T05:16:22.183Z,1.12
2018-02-01T05:17:25.115Z,1.07
2018-02-01T05:18:28.021Z,1.05
2018-02-01T05:19:31.279Z,1.07
2018-02-01T05:20:34.183Z,1.06
2018-02-01T05:21:36.979Z,1.03
2018-02-01T05:22:39.836Z,1.00
2018-02-01T05:23:42.717Z,1.05
2018-02-01T05:24:45.563Z,1.06
2018-02-01T05:25:48.952Z,1.03
2018-02-01T05:26:51.820Z,0.99
2018-02-01T05:27:54.746Z,1.02
2018-02-01T05:28:57.581Z,1.03
2018-02-01T05:30:00.493Z,0.98
2018-02-01T05:31:03.339Z,0.97
2018-02-01T05:32:06.212Z,0.97
2018-02-01T05:33:09.046Z,0.98
2018-02-01T05:34:12.017Z,0.98
2018-02-01T05:35:15.151Z,1.01
2018-02-01T05:36:18.153Z,1.04
2018-02-01T05:37:21.546Z,1.04
2018-02-01T05:38:24.552Z,1.01
2018-02-01T05:39:27.454Z,0.99
2018-02-01T05:40:30.584Z,0.95
2018-02-01T05:41:33.662Z,0.96
2018-02-01T05:42:36.644Z,0.96
2018-02-01T05:43:40.001Z,0.93
2018-02-01T05:44:42.959Z,0.89
2018-02-01T05:45:45.925Z,0.88
2018-02-01T05:46:49.037Z,0.87
2018-02-01T05:47:51.991Z,0.85
2018-02-01T05:48:54.955Z,0.75
2018-02-01T05:49:57.920Z,0.64
2018-02-01T05:51:01.134Z,0.70
2018-02-01T05:52:04.085Z,0.63
2018-02-01T05:53:07.001Z,0.51
2018-02-01T05:54:10.438Z,0.55
2018-02-01T05:55:13.427Z,0.70
2018-02-01T05:56:16.342Z,0.59
2018-02-01T05:57:19.263Z,0.57
2018-02-01T05:58:22.183Z,0.63
2018-02-01T05:59:25.088Z,0.68
2018-02-01T06:00:28.570Z,0.66
2018-02-01T06:01:31.544Z,0.71
2018-02-01T06:02:35.459Z,0.55
2018-02-01T06:03:39.134Z,0.57
2018-02-01T06:04:42.500Z,0.68
2018-02-01T06:05:46.131Z,0.81
2018-02-01T06:06:49.436Z,0.70
2018-02-01T06:07:52.348Z,0.64
2018-02-01T06:08:55.269Z,0.69
2018-02-01T06:09:58.172Z,0.70
2018-02-01T06:11:01.275Z,0.70
2018-02-01T06:12:04.216Z,0.68
2018-02-01T06:13:07.496Z,0.67
2018-02-01T06:14:10.484Z,0.67
2018-02-01T06:15:13.441Z,0.69
2018-02-01T06:16:17.038Z,0.69
2018-02-01T06:17:20.156Z,0.72
2018-02-01T06:18:23.114Z,0.74
2018-02-01T06:19:26.361Z,0.72
2018-02-01T06:20:29.277Z,0.72
2018-02-01T06:21:32.250Z,0.71
2018-02-01T06:22:35.194Z,0.76
2018-02-01T06:23:38.120Z,0.71
2018-02-01T06:24:42.048Z,0.72
2018-02-01T06:25:45.470Z,0.70
2018-02-01T06:26:48.440Z,0.68
2018-02-01T06:27:51.412Z,0.71
2018-02-01T06:28:54.363Z,0.72
2018-02-01T06:29:57.336Z,0.71
2018-02-01T06:31:00.309Z,0.69
2018-02-01T06:32:03.281Z,0.68
2018-02-01T06:33:06.251Z,0.73
2018-02-01T06:34:09.178Z,0.70
2018-02-01T06:35:12.118Z,0.70
2018-02-01T06:36:15.091Z,0.67
2018-02-01T06:37:18.553Z,0.67
2018-02-01T06:38:21.592Z,0.63
2018-02-01T06:39:24.535Z,0.56
2018-02-01T06:40:27.501Z,0.61
2018-02-01T06:41:30.463Z,0.65
2018-02-01T06:42:33.436Z,0.65
2018-02-01T06:43:36.798Z,0.62
2018-02-01T06:44:39.800Z,0.56
2018-02-01T06:45:42.739Z,0.60
2018-02-01T06:46:45.701Z,0.71
2018-02-01T06:47:48.691Z,0.73
2018-02-01T06:48:51.652Z,0.66
2018-02-01T06:49:55.061Z,0.66
2018-02-01T06:50:58.028Z,0.59
2018-02-01T06:52:00.953Z,0.59
2018-02-01T06:53:03.919Z,0.62
2018-02-01T06:54:06.861Z,0.61
2018-02-01T06:55:09.912Z,0.66
2018-02-01T06:56:13.289Z,0.66
2018-02-01T06:57:16.225Z,0.69
2018-02-01T06:58:19.202Z,0.65
2018-02-01T06:59:22.130Z,0.61
2018-02-01T07:00:25.851Z,0.67
2018-02-01T07:01:28.986Z,0.70
2018-02-01T07:02:32.409Z,0.68
2018-02-01T07:03:35.414Z,0.64
2018-02-01T07:04:38.401Z,0.65
2018-02-01T07:05:41.361Z,0.66
2018-02-01T07:06:44.421Z,0.69
2018-02-01T07:07:47.388Z,0.73
2018-02-01T07:08:50.665Z,0.72
2018-02-01T07:09:53.650Z,0.71
2018-02-01T07:10:56.617Z,0.64
2018-02-01T07:11:59.590Z,0.69
2018-02-01T07:13:02.541Z,0.75
2018-02-01T07:14:05.487Z,0.73
2018-02-01T07:15:09.011Z,0.73
2018-02-01T07:16:11.965Z,0.73
2018-02-01T07:17:14.896Z,0.74
2018-02-01T07:18:18.018Z,0.79
2018-02-01T07:19:21.178Z,0.81
2018-02-01T07:20:24.150Z,0.84
2018-02-01T07:21:28.107Z,0.83
2018-02-01T07:22:32.082Z,0.80
2018-02-01T07:23:35.035Z,0.79
2018-02-01T07:24:38.119Z,0.83
2018-02-01T07:25:41.069Z,0.88
2018-02-01T07:26:44.033Z,0.82
2018-02-01T07:27:46.996Z,0.82
2018-02-01T07:28:49.989Z,0.88
2018-02-01T07:29:52.938Z,0.92
2018-02-01T07:30:55.963Z,0.89
2018-02-01T07:31:58.904Z,0.94
2018-02-01T07:33:01.902Z,0.97
2018-02-01T07:34:05.343Z,0.98
2018-02-01T07:35:08.944Z,0.98
2018-02-01T07:36:11.894Z,0.98
2018-02-01T07:37:14.900Z,0.96
2018-02-01T07:38:17.868Z,0.94
2018-02-01T07:39:20.868Z,0.99
2018-02-01T07:40:24.293Z,1.12
2018-02-01T07:41:27.221Z,1.06
2018-02-01T07:42:30.164Z,1.10
2018-02-01T07:43:33.124Z,1.00
2018-02-01T07:44:36.100Z,0.96
2018-02-01T07:45:39.326Z,1.02
2018-02-01T07:46:42.878Z,1.01
2018-02-01T07:47:46.010Z,0.94
2018-02-01T07:48:49.019Z,0.99
2018-02-01T07:49:52.372Z,1.31
2018-02-01T07:50:55.362Z,1.59
2018-02-01T07:51:58.321Z,1.40
2018-02-01T07:53:01.304Z,1.30
2018-02-01T07:54:04.267Z,1.32
2018-02-01T07:55:07.209Z,1.33
2018-02-01T07:56:10.187Z,1.32
2018-02-01T07:57:13.206Z,1.28
2018-02-01T07:58:16.569Z,1.29
2018-02-01T07:59:19.537Z,1.29
2018-02-01T08:00:22.520Z,1.27
2018-02-01T08:01:25.455Z,1.30
2018-02-01T08:02:28.408Z,1.32
2018-02-01T08:03:31.353Z,1.30
2018-02-01T08:04:35.884Z,1.27
2018-02-01T08:05:38.883Z,1.27
2018-02-01T08:06:41.806Z,1.33
2018-02-01T08:07:44.751Z,1.35
2018-02-01T08:08:47.747Z,1.42
2018-02-01T08:09:50.671Z,1.42
2018-02-01T08:10:54.092Z,1.48
2018-02-01T08:11:57.048Z,1.53
2018-02-01T08:13:00.133Z,1.51
2018-02-01T08:14:03.112Z,1.90
2018-02-01T08:15:06.778Z,2.21
2018-02-01T08:16:10.618Z,2.32
2018-02-01T08:17:14.350Z,2.45
2018-02-01T21:28:52.081Z,1.12
2018-02-01T21:29:56.238Z,1.11
2018-02-01T21:30:59.817Z,1.09
2018-02-01T21:32:03.230Z,1.09
2018-02-01T21:33:07.597Z,1.15
2018-02-01T21:34:11.985Z,1.19
2018-02-01T21:35:16.052Z,1.21
2018-02-01T21:36:21.126Z,1.22
2018-02-01T21:37:24.748Z,1.23
2018-02-01T21:38:28.346Z,1.20
2018-02-01T21:39:33.361Z,1.18
2018-02-01T21:40:37.391Z,1.29
2018-02-01T21:41:42.774Z,1.22
2018-02-01T21:42:46.524Z,1.20
2018-02-01T21:43:49.951Z,1.20
2018-02-01T21:44:53.717Z,1.18
2018-02-01T21:45:56.936Z,1.22
2018-02-01T21:47:00.573Z,1.26
2018-02-01T21:48:03.879Z,1.25
2018-02-01T21:49:08.152Z,1.28
2018-02-01T21:50:12.145Z,1.27
2018-02-01T21:51:16.927Z,1.29
2018-02-01T21:52:21.402Z,1.34
2018-02-01T21:53:26.302Z,1.34
2018-02-01T21:54:30.921Z,1.34
2018-02-01T21:55:36.158Z,1.33
2018-02-01T21:56:39.267Z,1.29
2018-02-01T21:57:43.765Z,1.29
2018-02-01T21:58:46.718Z,1.22
2018-02-01T21:59:50.131Z,1.19
2018-02-01T22:00:53.190Z,1.21
2018-02-01T22:01:56.550Z,1.23
2018-02-01T22:02:59.463Z,1.24
2018-02-01T22:04:02.466Z,1.23
2018-02-01T22:05:05.620Z,1.22
2018-02-01T22:06:08.472Z,1.23
2018-02-01T22:07:11.300Z,1.21
2018-02-01T22:08:14.506Z,1.13
2018-02-01T22:09:17.481Z,1.11
2018-02-01T22:10:20.385Z,1.11
2018-02-01T22:11:23.336Z,1.17
2018-02-01T22:12:26.345Z,1.18
2018-02-01T22:13:29.423Z,1.18
2018-02-01T22:14:32.724Z,1.21
2018-02-01T22:15:35.970Z,1.20
2018-02-01T22:16:38.992Z,1.22
2018-02-01T22:17:41.961Z,1.22
2018-02-01T22:18:44.939Z,1.20
2018-02-01T22:19:47.910Z,1.23
2018-02-01T22:20:51.134Z,1.24
2018-02-01T22:21:54.280Z,1.21
2018-02-01T22:22:57.234Z,1.20
2018-02-01T22:24:00.179Z,1.22
2018-02-01T22:25:03.137Z,1.25
2018-02-01T22:26:06.073Z,1.25
2018-02-01T22:27:09.320Z,1.28
2018-02-01T22:28:12.330Z,1.25
2018-02-01T22:29:15.307Z,1.25
2018-02-01T22:30:18.302Z,1.26
2018-02-01T22:31:21.269Z,1.30
2018-02-01T22:32:24.281Z,1.28
2018-02-01T22:33:27.535Z,1.25
2018-02-01T22:34:30.476Z,1.27
2018-02-01T22:35:33.448Z,1.35
2018-02-01T22:36:36.392Z,1.30
2018-02-01T22:37:39.424Z,1.30
2018-02-01T22:38:42.301Z,1.35
2018-02-01T22:39:45.477Z,1.38
2018-02-01T22:40:48.340Z,1.38
2018-02-01T22:41:51.274Z,1.36
2018-02-01T22:42:54.226Z,1.35
2018-02-01T22:43:57.203Z,1.36
2018-02-01T22:45:00.156Z,1.38
2018-02-01T22:46:03.397Z,1.36
2018-02-01T22:47:06.329Z,1.34
2018-02-01T22:48:09.326Z,1.35
2018-02-01T22:49:12.270Z,1.37
2018-02-01T22:50:15.218Z,1.41
2018-02-01T22:51:18.194Z,1.37
2018-02-01T22:52:21.416Z,1.34
2018-02-01T22:53:24.393Z,1.34
2018-02-01T22:54:27.384Z,1.32
2018-02-01T22:55:30.381Z,1.32
2018-02-01T22:56:33.330Z,1.33
2018-02-01T22:57:36.267Z,1.34
2018-02-01T22:58:39.413Z,1.32
2018-02-01T22:59:42.194Z,1.30
2018-02-01T23:00:45.763Z,1.27
2018-02-01T23:01:50.191Z,1.28
2018-02-01T23:02:53.125Z,1.29
2018-02-01T23:03:56.677Z,1.34
2018-02-01T23:05:00.648Z,1.32
2018-02-01T23:06:04.536Z,1.32
2018-02-01T23:07:07.529Z,1.37
2018-02-01T23:08:10.500Z,1.32
2018-02-01T23:09:13.707Z,1.30
2018-02-01T23:10:17.458Z,1.31
2018-02-01T23:11:21.473Z,1.33
2018-02-01T23:12:24.453Z,1.32
2018-02-01T23:13:27.421Z,1.35
2018-02-01T23:14:31.051Z,1.32
2018-02-01T23:15:34.560Z,1.33
2018-02-01T23:16:38.144Z,1.37
2018-02-01T23:17:41.505Z,1.37
2018-02-01T23:18:44.482Z,1.31
2018-02-01T23:19:48.033Z,1.36
2018-02-01T23:20:51.781Z,1.34
2018-02-01T23:21:54.765Z,1.32
2018-02-01T23:22:58.156Z,1.32
2018-02-01T23:24:01.482Z,1.36
2018-02-01T23:25:05.038Z,1.29
2018-02-01T23:26:08.017Z,1.27
2018-02-01T23:27:10.932Z,1.30
2018-02-01T23:28:14.182Z,1.30
2018-02-01T23:29:17.639Z,1.32
2018-02-01T23:30:21.867Z,1.32
2018-02-01T23:31:24.996Z,1.33
2018-02-01T23:32:28.288Z,1.32
2018-02-01T23:33:31.233Z,1.33
2018-02-01T23:34:34.342Z,1.37
2018-02-01T23:35:38.112Z,1.35
2018-02-01T23:36:42.108Z,1.33
2018-02-01T23:37:45.200Z,1.34
2018-02-01T23:38:48.201Z,1.38
2018-02-01T23:39:51.042Z,1.30
2018-02-01T23:40:54.006Z,1.31
2018-02-01T23:41:57.055Z,1.35
2018-02-01T23:43:00.326Z,1.35
2018-02-01T23:44:03.379Z,1.30
2018-02-01T23:45:06.544Z,1.27
2018-02-01T23:46:09.643Z,1.31
2018-02-01T23:47:12.738Z,1.33
2018-02-01T23:48:15.687Z,1.28
2018-02-01T23:49:18.981Z,1.24
2018-02-01T23:50:21.948Z,1.27
2018-02-01T23:51:24.858Z,1.24
2018-02-01T23:52:28.205Z,1.25
2018-02-01T23:53:31.179Z,1.24
2018-02-01T23:54:34.269Z,1.23
2018-02-01T23:55:37.627Z,1.22
2018-02-01T23:56:41.077Z,1.21
2018-02-01T23:57:44.230Z,1.21
2018-02-01T23:58:47.877Z,1.23
2018-02-01T23:59:50.899Z,1.29
